Time;durP1;ratioP1;P1;durP2;ratioP2;P2;SDS_P1;SDS_P2;PMS_P1;PMS_P2;Temp;Humidity;BMP_temperature;BMP_pressure;BME280_temperature;BME280_humidity;BME280_pressure;Samples;Min_cycle;Max_cycle;Signal;HPM_P1;HPM_P2
2021/07/26 00:01:12;;;;;;;52.38;16.75;;;17.50;99.90;;;;;;5031042;28;20079;-59
2021/07/26 00:03:38;;;;;;;53.88;17.45;;;17.50;99.90;;;;;;5031929;28;20021;-59
2021/07/26 00:06:04;;;;;;;46.15;16.95;;;17.60;99.90;;;;;;5032340;28;20022;-59
2021/07/26 00:08:29;;;;;;;59.78;17.98;;;17.60;99.90;;;;;;5031476;28;20037;-60
2021/07/26 00:11:06;;;;;;;45.55;17.27;;;17.60;99.90;;;;;;5039689;28;20033;-59
2021/07/26 00:13:33;;;;;;;57.45;18.38;;;17.60;99.90;;;;;;5032256;28;20033;-57
2021/07/26 00:15:58;;;;;;;54.33;17.67;;;17.50;99.90;;;;;;5031824;28;20487;-59
2021/07/26 00:18:27;;;;;;;52.00;17.00;;;17.50;99.90;;;;;;5031241;28;20026;-59
2021/07/26 00:20:52;;;;;;;49.90;17.23;;;17.50;99.90;;;;;;5031912;28;20108;-60
2021/07/26 00:23:18;;;;;;;57.80;17.25;;;17.50;99.90;;;;;;5031407;28;20120;-58
2021/07/26 00:25:44;;;;;;;60.90;18.20;;;17.50;99.90;;;;;;5031498;28;20529;-57
2021/07/26 00:28:10;;;;;;;61.10;18.92;;;17.50;99.90;;;;;;5030866;28;20076;-59
2021/07/26 00:30:36;;;;;;;61.45;18.55;;;17.50;99.90;;;;;;5031077;28;20083;-58
2021/07/26 00:33:02;;;;;;;58.50;18.80;;;17.50;99.90;;;;;;5030950;28;20037;-60
2021/07/26 00:35:28;;;;;;;61.78;18.70;;;17.40;99.90;;;;;;5031266;28;20116;-60
2021/07/26 00:37:54;;;;;;;49.15;18.52;;;17.40;99.90;;;;;;5031398;28;20094;-58
2021/07/26 00:40:20;;;;;;;65.60;18.73;;;17.40;99.90;;;;;;5031514;28;20539;-58
2021/07/26 00:42:45;;;;;;;50.53;18.80;;;17.40;99.90;;;;;;5031230;28;20021;-58
2021/07/26 00:45:12;;;;;;;52.55;18.67;;;17.40;99.90;;;;;;5031524;28;20040;-58
2021/07/26 00:47:37;;;;;;;53.70;19.88;;;17.40;99.90;;;;;;5031806;28;20051;-58
2021/07/26 00:50:04;;;;;;;47.30;18.52;;;17.30;99.90;;;;;;5029437;28;20025;-59
2021/07/26 00:52:29;;;;;;;55.20;18.33;;;17.30;99.90;;;;;;5031434;28;20029;-60
2021/07/26 00:54:55;;;;;;;48.70;18.33;;;17.40;99.90;;;;;;5030705;28;20357;-59
2021/07/26 00:57:22;;;;;;;48.67;18.67;;;17.30;99.90;;;;;;5031646;28;20476;-60
2021/07/26 00:59:51;;;;;;;61.20;18.02;;;17.30;99.90;;;;;;5030153;28;20029;-62
2021/07/26 01:02:17;;;;;;;55.55;17.52;;;17.30;99.90;;;;;;5031254;28;20079;-59
2021/07/26 01:04:42;;;;;;;57.90;18.20;;;17.30;99.90;;;;;;5030749;28;20033;-58
2021/07/26 01:07:08;;;;;;;48.95;19.02;;;17.30;99.90;;;;;;5031321;28;20388;-56
2021/07/26 01:09:34;;;;;;;43.08;17.60;;;17.40;99.90;;;;;;5030407;28;20095;-58
2021/07/26 01:12:00;;;;;;;50.67;18.45;;;17.40;99.90;;;;;;5030709;28;20033;-59
2021/07/26 01:14:26;;;;;;;53.20;19.13;;;17.40;99.90;;;;;;5030155;28;20112;-59
2021/07/26 01:16:52;;;;;;;48.53;18.35;;;17.40;99.90;;;;;;5031240;28;20091;-58
2021/07/26 01:19:17;;;;;;;52.33;18.23;;;17.40;99.90;;;;;;5030703;28;20029;-60
2021/07/26 01:21:44;;;;;;;52.10;18.52;;;17.40;99.90;;;;;;5031012;28;20033;-61
2021/07/26 01:24:10;;;;;;;57.30;18.92;;;17.40;99.90;;;;;;5030389;28;20025;-59
2021/07/26 01:26:36;;;;;;;54.22;17.88;;;17.40;99.90;;;;;;5030929;28;20398;-59
2021/07/26 01:29:04;;;;;;;53.85;18.63;;;17.40;99.90;;;;;;5029904;28;20034;-59
2021/07/26 01:31:31;;;;;;;55.83;18.08;;;17.50;99.90;;;;;;5031011;28;20151;-58
2021/07/26 01:33:57;;;;;;;47.25;18.27;;;17.50;99.90;;;;;;5029510;28;20092;-61
2021/07/26 01:36:23;;;;;;;36.88;17.13;;;17.50;99.90;;;;;;5031071;28;20088;-60
2021/07/26 01:38:53;;;;;;;55.20;18.95;;;17.50;99.90;;;;;;5028912;28;20033;-59
2021/07/26 01:41:24;;;;;;;47.10;17.65;;;17.50;99.90;;;;;;5030418;28;20395;-60
2021/07/26 01:44:10;;;;;;;56.22;19.02;;;17.50;99.90;;;;;;5030452;28;20033;-60
2021/07/26 01:46:42;;;;;;;50.70;18.90;;;17.50;99.90;;;;;;5030807;28;20049;-58
2021/07/26 01:49:24;;;;;;;56.90;19.15;;;17.50;99.90;;;;;;5027075;28;20045;-59
2021/07/26 01:51:50;;;;;;;51.97;19.35;;;17.50;99.90;;;;;;5029011;28;20079;-60
2021/07/26 01:54:16;;;;;;;56.30;19.00;;;17.40;99.90;;;;;;5030038;28;20108;-60
2021/07/26 01:56:42;;;;;;;51.40;18.63;;;17.40;99.90;;;;;;5030553;28;20030;-60
2021/07/26 01:59:08;;;;;;;54.75;18.95;;;17.30;99.90;;;;;;5029613;28;20439;-58
2021/07/26 02:01:34;;;;;;;48.17;19.90;;;17.30;99.90;;;;;;5033125;28;20037;-59
2021/07/26 02:04:00;;;;;;;44.22;17.77;;;17.30;99.90;;;;;;5033959;28;20037;-59
2021/07/26 02:06:26;;;;;;;50.30;19.27;;;17.30;99.90;;;;;;5034525;28;20479;-59
2021/07/26 02:08:52;;;;;;;58.72;18.80;;;17.30;99.90;;;;;;5033440;28;20124;-60
2021/07/26 02:11:21;;;;;;;51.70;18.55;;;17.20;99.90;;;;;;5033291;28;20488;-59
2021/07/26 02:13:51;;;;;;;50.35;19.10;;;17.10;99.90;;;;;;5034427;28;20022;-60
2021/07/26 02:16:17;;;;;;;42.03;17.75;;;17.10;99.90;;;;;;5034199;28;20037;-59
2021/07/26 02:18:42;;;;;;;49.53;18.52;;;17.00;99.90;;;;;;5033489;28;20411;-58
2021/07/26 02:21:08;;;;;;;47.97;18.30;;;17.00;99.90;;;;;;5034169;28;20059;-60
2021/07/26 02:23:34;;;;;;;51.78;18.23;;;17.00;99.90;;;;;;5033274;28;20398;-59
2021/07/26 02:26:00;;;;;;;44.20;18.92;;;17.00;99.90;;;;;;5034184;28;20448;-59
2021/07/26 02:28:25;;;;;;;44.78;19.48;;;17.00;99.90;;;;;;5033353;28;20469;-59
2021/07/26 02:30:51;;;;;;;45.65;18.13;;;17.00;99.90;;;;;;5033287;28;20040;-59
2021/07/26 02:33:17;;;;;;;51.33;19.27;;;16.90;99.90;;;;;;5033871;28;20028;-58
2021/07/26 02:35:43;;;;;;;61.33;21.00;;;16.90;99.90;;;;;;5033131;28;20075;-60
2021/07/26 02:38:08;;;;;;;55.22;19.80;;;16.80;99.90;;;;;;5034374;28;20435;-61
2021/07/26 02:40:34;;;;;;;61.70;21.35;;;16.80;99.90;;;;;;5033242;28;20029;-59
2021/07/26 02:43:00;;;;;;;52.63;20.77;;;16.80;99.90;;;;;;5034555;28;20044;-59
2021/07/26 02:45:27;;;;;;;54.42;20.58;;;16.80;99.90;;;;;;5032733;28;20434;-60
2021/07/26 02:47:53;;;;;;;49.25;20.25;;;16.80;99.90;;;;;;5034050;28;20034;-61
2021/07/26 02:50:20;;;;;;;49.38;20.50;;;16.80;99.90;;;;;;5032694;28;20109;-58
2021/07/26 02:52:46;;;;;;;44.28;20.15;;;16.80;99.90;;;;;;5033511;28;20041;-58
2021/07/26 02:55:13;;;;;;;48.38;19.38;;;16.70;99.90;;;;;;5033282;28;20087;-58
2021/07/26 02:57:38;;;;;;;50.63;20.83;;;16.80;99.90;;;;;;5033405;28;20033;-58
2021/07/26 03:00:06;;;;;;;55.97;20.00;;;16.80;99.90;;;;;;5032158;28;20048;-57
2021/07/26 03:02:34;;;;;;;48.85;19.17;;;16.70;99.90;;;;;;5033755;28;20388;-59
2021/07/26 03:05:00;;;;;;;41.97;18.92;;;16.70;99.90;;;;;;5033250;28;20038;-57
2021/07/26 03:07:25;;;;;;;46.75;18.88;;;16.70;99.90;;;;;;5033750;28;20040;-60
2021/07/26 03:09:51;;;;;;;47.22;18.27;;;16.70;99.90;;;;;;5032234;28;20396;-62
2021/07/26 03:12:17;;;;;;;45.33;19.08;;;16.60;99.90;;;;;;5032988;28;20026;-61
2021/07/26 03:14:42;;;;;;;41.17;18.10;;;16.60;99.90;;;;;;5032313;28;20075;-59
2021/07/26 03:17:08;;;;;;;44.83;18.48;;;16.60;99.90;;;;;;5034669;28;20449;-60
2021/07/26 03:19:34;;;;;;;41.00;17.75;;;16.60;99.90;;;;;;5034917;28;20041;-59
2021/07/26 03:22:54;;;;;;;37.88;18.45;;;16.60;99.90;;;;;;5033418;28;20044;-59
2021/07/26 03:25:20;;;;;;;28.10;17.42;;;16.60;99.90;;;;;;5032442;28;20776;-59
2021/07/26 03:27:48;;;;;;;34.95;17.85;;;16.60;99.90;;;;;;5033271;28;20076;-58
2021/07/26 03:30:15;;;;;;;28.50;17.75;;;16.50;99.90;;;;;;5032075;28;20048;-59
2021/07/26 03:32:40;;;;;;;32.90;18.25;;;16.50;99.90;;;;;;5033183;28;20041;-61
2021/07/26 03:35:06;;;;;;;41.25;20.00;;;16.40;99.90;;;;;;5032120;28;20034;-58
2021/07/26 03:37:32;;;;;;;40.80;19.50;;;16.40;99.90;;;;;;5033388;28;20028;-61
2021/07/26 03:39:58;;;;;;;49.47;20.50;;;16.40;99.90;;;;;;5031970;28;20760;-59
2021/07/26 03:42:23;;;;;;;47.88;20.05;;;16.30;99.90;;;;;;5033082;28;20380;-60
2021/07/26 03:44:49;;;;;;;41.78;20.58;;;16.30;99.90;;;;;;5031644;28;20048;-59
2021/07/26 03:47:15;;;;;;;40.05;21.08;;;16.30;99.90;;;;;;5033086;28;20049;-60
2021/07/26 03:49:40;;;;;;;61.28;22.67;;;16.30;99.90;;;;;;5031753;28;20034;-59
2021/07/26 03:52:06;;;;;;;47.10;21.67;;;16.30;99.90;;;;;;5032477;28;20028;-61
2021/07/26 03:54:32;;;;;;;40.80;22.13;;;16.30;99.90;;;;;;5032049;28;20513;-60
2021/07/26 03:56:58;;;;;;;49.17;22.60;;;16.30;99.90;;;;;;5032938;28;20480;-58
2021/07/26 03:59:26;;;;;;;47.42;22.95;;;16.30;99.90;;;;;;5031115;28;20101;-58
2021/07/26 04:01:55;;;;;;;49.05;21.70;;;16.30;99.90;;;;;;5032554;28;20083;-59
2021/07/26 04:04:25;;;;;;;47.10;21.27;;;16.30;99.90;;;;;;5031438;28;20033;-59
2021/07/26 04:07:03;;;;;;;58.67;22.95;;;16.20;99.90;;;;;;5032946;28;20037;-60
2021/07/26 04:09:37;;;;;;;71.15;22.98;;;16.20;99.90;;;;;;5031218;28;20456;-59
2021/07/26 04:12:07;;;;;;;44.50;22.52;;;16.10;99.90;;;;;;5032352;28;20029;-60
2021/07/26 04:14:38;;;;;;;76.85;22.60;;;16.20;99.90;;;;;;5031203;28;20112;-60
2021/07/26 04:17:04;;;;;;;73.60;23.25;;;16.10;99.90;;;;;;5032593;28;20430;-58
2021/07/26 04:19:30;;;;;;;74.95;23.42;;;16.10;99.90;;;;;;5030727;28;20037;-58
2021/07/26 04:21:56;;;;;;;54.50;22.25;;;16.10;99.90;;;;;;5032054;28;20072;-60
2021/07/26 04:24:22;;;;;;;76.03;21.52;;;16.10;99.90;;;;;;5029534;28;20029;-59
2021/07/26 04:26:48;;;;;;;48.90;21.60;;;16.10;99.90;;;;;;5031755;28;20050;-59
2021/07/26 04:29:15;;;;;;;62.42;21.38;;;16.10;99.90;;;;;;5031148;28;20486;-58
2021/07/26 04:31:41;;;;;;;64.90;21.75;;;16.10;99.90;;;;;;5031447;28;20351;-56
2021/07/26 04:34:07;;;;;;;50.40;20.58;;;16.10;99.90;;;;;;5031673;28;20025;-57
2021/07/26 04:36:32;;;;;;;77.85;20.40;;;16.10;99.90;;;;;;5031089;28;20380;-58
2021/07/26 04:38:58;;;;;;;65.80;20.67;;;16.10;99.90;;;;;;5031833;28;20026;-58
2021/07/26 04:41:24;;;;;;;71.68;19.83;;;16.00;99.90;;;;;;5030682;28;20029;-58
2021/07/26 04:43:49;;;;;;;52.58;20.90;;;16.00;99.90;;;;;;5031757;28;20051;-59
2021/07/26 04:46:15;;;;;;;81.00;19.98;;;16.00;99.90;;;;;;5030827;28;20062;-58
2021/07/26 04:48:41;;;;;;;48.13;23.38;;;16.00;99.90;;;;;;5031428;28;20407;-58
2021/07/26 04:51:06;;;;;;;48.97;22.45;;;16.00;99.90;;;;;;5030477;28;20053;-59
2021/07/26 04:53:33;;;;;;;44.08;22.25;;;16.00;99.90;;;;;;5031523;28;20044;-57
2021/07/26 04:55:59;;;;;;;43.28;23.38;;;16.10;99.90;;;;;;5031117;28;20033;-60
2021/07/26 04:58:25;;;;;;;45.55;20.65;;;16.10;99.90;;;;;;5031464;28;20498;-59
2021/07/26 05:00:50;;;;;;;58.13;23.70;;;16.10;99.90;;;;;;5030096;28;20037;-58
2021/07/26 05:03:16;;;;;;;40.17;23.73;;;16.00;99.90;;;;;;5031700;28;20036;-56
2021/07/26 05:05:42;;;;;;;41.72;23.40;;;16.10;99.90;;;;;;5030305;28;20112;-57
2021/07/26 05:08:08;;;;;;;43.15;24.30;;;16.10;99.90;;;;;;5031368;28;20097;-58
2021/07/26 05:10:33;;;;;;;58.75;36.85;;;16.10;99.90;;;;;;5030354;28;20154;-58
2021/07/26 05:12:59;;;;;;;41.42;23.10;;;16.20;99.90;;;;;;5031059;28;20026;-61
2021/07/26 05:15:25;;;;;;;55.53;23.65;;;16.20;99.90;;;;;;5030345;28;20534;-60
2021/07/26 05:17:51;;;;;;;50.42;24.73;;;16.20;99.90;;;;;;5031303;28;20033;-59
2021/07/26 05:20:17;;;;;;;49.25;23.73;;;16.30;99.90;;;;;;5030447;28;20035;-60
2021/07/26 05:22:42;;;;;;;51.45;23.67;;;16.30;99.90;;;;;;5031019;28;20123;-58
2021/07/26 05:25:09;;;;;;;48.63;23.60;;;16.20;99.90;;;;;;5029233;28;20387;-58
2021/07/26 05:27:36;;;;;;;34.22;22.17;;;16.30;99.90;;;;;;5024693;28;20511;-61
2021/07/26 05:30:05;;;;;;;38.58;21.83;;;16.30;99.90;;;;;;5029112;28;20090;-57
2021/07/26 05:32:31;;;;;;;41.28;21.73;;;16.20;99.90;;;;;;5023520;28;20029;-59
2021/07/26 05:34:57;;;;;;;39.90;20.92;;;16.20;99.90;;;;;;5029401;28;20047;-60
2021/07/26 05:37:22;;;;;;;44.95;21.85;;;16.20;99.90;;;;;;5031014;28;20037;-59
2021/07/26 05:39:48;;;;;;;44.42;22.67;;;16.40;99.90;;;;;;5030037;28;20487;-58
2021/07/26 05:42:14;;;;;;;43.30;22.50;;;16.30;99.90;;;;;;5030495;28;20472;-58
2021/07/26 05:44:43;;;;;;;54.97;24.38;;;16.30;99.90;;;;;;5030728;28;20056;-58
2021/07/26 05:47:10;;;;;;;55.35;24.13;;;16.30;99.90;;;;;;5017805;28;20036;-59
2021/07/26 05:49:36;;;;;;;51.45;23.27;;;16.40;99.90;;;;;;5030841;28;20040;-59
2021/07/26 05:52:02;;;;;;;47.45;23.83;;;16.30;99.90;;;;;;5029655;28;20041;-60
2021/07/26 05:54:27;;;;;;;56.72;24.98;;;16.40;99.90;;;;;;5030625;28;20118;-59
2021/07/26 05:56:53;;;;;;;45.90;22.92;;;16.30;99.90;;;;;;5030145;28;20029;-58
2021/07/26 05:59:19;;;;;;;53.97;23.10;;;16.40;99.90;;;;;;5030078;28;20033;-59
2021/07/26 06:01:48;;;;;;;40.88;20.50;;;16.40;99.90;;;;;;5029860;28;20037;-59
2021/07/26 06:04:18;;;;;;;42.08;21.60;;;16.40;99.90;;;;;;5030308;28;20109;-56
2021/07/26 06:06:52;;;;;;;38.92;20.13;;;16.50;99.90;;;;;;5029986;28;20048;-58
2021/07/26 06:09:18;;;;;;;47.85;21.70;;;16.50;99.90;;;;;;5030256;28;20048;-59
2021/07/26 06:11:45;;;;;;;41.70;20.48;;;16.60;99.90;;;;;;5029685;28;20040;-58
2021/07/26 06:14:12;;;;;;;45.65;20.40;;;16.60;99.90;;;;;;5030313;28;20031;-61
2021/07/26 06:16:49;;;;;;;40.22;21.02;;;16.60;99.90;;;;;;5030223;28;20030;-58
2021/07/26 06:19:16;;;;;;;38.97;19.90;;;16.60;99.90;;;;;;5030298;28;20044;-59
2021/07/26 06:21:44;;;;;;;37.60;20.42;;;16.60;99.90;;;;;;5036934;28;20485;-58
2021/07/26 06:24:11;;;;;;;49.55;23.20;;;16.60;99.90;;;;;;5032854;28;20033;-60
2021/07/26 06:26:36;;;;;;;41.58;20.55;;;16.80;99.90;;;;;;5029755;28;20045;-59
2021/07/26 06:29:03;;;;;;;45.35;20.08;;;16.90;99.90;;;;;;5029361;28;20502;-63
2021/07/26 06:31:29;;;;;;;56.33;20.85;;;17.00;99.90;;;;;;5029578;28;20034;-57
2021/07/26 06:33:55;;;;;;;50.05;20.08;;;17.00;99.90;;;;;;5030448;28;20036;-60
2021/07/26 06:36:20;;;;;;;56.78;20.42;;;17.00;99.90;;;;;;5029604;28;20145;-61
2021/07/26 06:38:46;;;;;;;40.90;19.88;;;17.10;99.90;;;;;;5030456;28;20057;-59
2021/07/26 06:41:11;;;;;;;38.95;20.50;;;17.10;99.90;;;;;;5029661;28;20066;-59
2021/07/26 06:43:37;;;;;;;51.85;21.65;;;17.20;99.90;;;;;;5030355;28;20029;-59
2021/07/26 06:46:06;;;;;;;48.38;22.10;;;17.30;99.90;;;;;;5029180;28;20044;-59
2021/07/26 06:48:32;;;;;;;48.10;21.75;;;17.30;99.90;;;;;;5051490;28;20045;-59
2021/07/26 06:50:59;;;;;;;46.35;20.77;;;17.40;99.90;;;;;;5028012;28;20115;-59
2021/07/26 06:53:25;;;;;;;59.40;22.25;;;17.40;99.90;;;;;;5033279;28;20026;-60
2021/07/26 06:55:51;;;;;;;46.00;21.00;;;17.30;99.90;;;;;;5032803;28;20100;-58
2021/07/26 06:58:17;;;;;;;45.50;19.95;;;17.40;99.90;;;;;;5033600;28;20033;-59
2021/07/26 07:00:42;;;;;;;41.17;20.52;;;17.40;99.90;;;;;;5032530;28;20083;-58
2021/07/26 07:03:08;;;;;;;44.50;22.20;;;17.50;99.90;;;;;;5033348;28;20041;-59
2021/07/26 07:05:34;;;;;;;50.22;19.65;;;17.50;99.90;;;;;;5032896;28;20866;-58
2021/07/26 07:08:01;;;;;;;39.92;18.15;;;17.40;99.90;;;;;;5033966;28;20387;-58
2021/07/26 07:10:28;;;;;;;51.20;18.48;;;17.50;99.90;;;;;;5032367;28;20036;-58
2021/07/26 07:12:54;;;;;;;52.80;19.38;;;17.50;99.90;;;;;;5033347;28;20017;-60
2021/07/26 07:15:21;;;;;;;36.78;19.90;;;17.50;99.90;;;;;;5032466;28;20501;-58
2021/07/26 07:17:50;;;;;;;38.13;18.40;;;17.60;99.90;;;;;;5033482;28;20086;-58
2021/07/26 07:20:16;;;;;;;30.30;17.58;;;17.60;99.90;;;;;;5032907;28;20025;-58
2021/07/26 07:22:42;;;;;;;46.72;19.80;;;17.60;99.90;;;;;;5031815;28;20033;-60
2021/07/26 07:25:09;;;;;;;54.38;20.30;;;17.60;99.90;;;;;;5033046;28;20061;-60
2021/07/26 07:27:35;;;;;;;45.78;18.65;;;17.80;99.90;;;;;;5032367;28;20076;-59
2021/07/26 07:30:00;;;;;;;37.45;16.23;;;17.80;99.90;;;;;;5031819;28;20840;-57
2021/07/26 07:32:26;;;;;;;44.38;16.98;;;17.70;99.90;;;;;;5032368;28;20052;-57
2021/07/26 07:34:53;;;;;;;29.02;17.02;;;17.80;99.90;;;;;;5032638;28;20021;-59
2021/07/26 07:37:18;;;;;;;39.60;16.33;;;17.80;99.90;;;;;;5032361;28;20029;-59
2021/07/26 07:39:44;;;;;;;43.28;17.48;;;17.90;99.90;;;;;;5032631;28;20044;-59
2021/07/26 07:42:10;;;;;;;40.38;17.08;;;18.00;99.90;;;;;;5031773;28;20025;-58
2021/07/26 07:44:35;;;;;;;34.75;17.52;;;18.10;99.90;;;;;;5032694;28;20029;-57
2021/07/26 07:47:02;;;;;;;34.72;16.98;;;18.00;99.90;;;;;;5030978;28;20025;-59
2021/07/26 07:49:28;;;;;;;48.83;16.73;;;18.10;99.90;;;;;;5032818;28;20033;-59
2021/07/26 07:51:55;;;;;;;49.75;16.45;;;18.00;99.90;;;;;;5023144;28;20035;-59
2021/07/26 07:54:21;;;;;;;42.72;17.52;;;18.20;99.90;;;;;;5032210;28;20498;-59
2021/07/26 07:56:48;;;;;;;31.38;14.73;;;18.20;99.90;;;;;;5027736;28;20030;-60
2021/07/26 07:59:14;;;;;;;37.28;15.70;;;18.20;99.90;;;;;;5030078;28;20025;-60
2021/07/26 08:01:42;;;;;;;53.42;15.18;;;18.30;99.90;;;;;;5030083;28;20052;-59
2021/07/26 08:04:08;;;;;;;24.73;15.55;;;18.30;99.90;;;;;;5032370;28;20040;-60
2021/07/26 08:06:35;;;;;;;32.42;14.10;;;18.40;99.90;;;;;;5030890;28;20025;-58
2021/07/26 08:09:01;;;;;;;33.28;13.27;;;18.50;99.90;;;;;;5031847;28;20091;-60
2021/07/26 08:11:26;;;;;;;57.65;15.90;;;18.60;99.90;;;;;;5030280;28;20462;-59
2021/07/26 08:13:52;;;;;;;31.83;13.30;;;18.60;99.90;;;;;;5031676;28;20045;-60
2021/07/26 08:16:22;;;;;;;36.05;13.65;;;18.70;99.90;;;;;;5031667;28;20387;-59
2021/07/26 08:18:48;;;;;;;36.47;14.20;;;18.70;99.90;;;;;;5032063;28;20037;-59
2021/07/26 08:21:15;;;;;;;33.75;13.65;;;18.70;99.90;;;;;;5031104;28;20091;-59
2021/07/26 08:23:40;;;;;;;26.58;13.13;;;18.90;99.90;;;;;;5031328;28;20041;-59
2021/07/26 08:26:06;;;;;;;20.63;11.52;;;19.10;99.90;;;;;;5030205;28;20704;-59
2021/07/26 08:28:32;;;;;;;29.00;12.55;;;19.30;99.90;;;;;;5031882;28;20132;-60
2021/07/26 08:31:00;;;;;;;29.02;11.27;;;19.70;99.90;;;;;;5029269;28;20033;-60
2021/07/26 08:33:26;;;;;;;36.47;10.90;;;20.20;99.90;;;;;;5030839;28;20022;-58
2021/07/26 08:35:52;;;;;;;24.88;9.98;;;20.40;99.90;;;;;;5030916;28;20095;-58
2021/07/26 08:38:17;;;;;;;23.55;9.88;;;20.50;99.90;;;;;;5031676;28;20036;-60
2021/07/26 08:40:45;;;;;;;32.72;10.40;;;20.70;99.90;;;;;;5031601;28;20078;-57
2021/07/26 08:43:13;;;;;;;20.95;9.55;;;20.70;99.90;;;;;;5030884;28;20494;-59
2021/07/26 08:45:39;;;;;;;23.50;9.02;;;20.90;99.90;;;;;;5031851;28;20060;-58
2021/07/26 08:48:10;;;;;;;28.48;8.65;;;20.90;99.90;;;;;;5027595;28;20387;-60
2021/07/26 08:50:38;;;;;;;49.47;13.10;;;20.90;99.90;;;;;;5018954;28;20029;-59
2021/07/26 08:53:06;;;;;;;32.40;10.20;;;20.90;99.90;;;;;;5029443;28;20032;-58
2021/07/26 08:55:34;;;;;;;24.25;9.35;;;21.10;99.90;;;;;;5030985;28;20038;-59
2021/07/26 08:58:00;;;;;;;27.45;8.82;;;21.10;99.90;;;;;;5030321;28;20061;-58
2021/07/26 09:00:26;;;;;;;34.53;9.93;;;21.00;99.90;;;;;;5031868;28;20101;-60
2021/07/26 09:02:52;;;;;;;19.42;8.95;;;21.00;99.90;;;;;;5030969;28;20440;-60
2021/07/26 09:05:19;;;;;;;29.77;9.68;;;21.00;99.90;;;;;;5031141;28;20061;-60
2021/07/26 09:07:47;;;;;;;21.42;10.68;;;21.10;99.90;;;;;;5030507;28;20025;-59
2021/07/26 09:10:20;;;;;;;21.00;9.48;;;21.20;99.90;;;;;;5030642;28;20037;-60
2021/07/26 09:12:48;;;;;;;26.25;9.05;;;21.20;99.90;;;;;;5030659;28;20048;-58
2021/07/26 09:15:36;;;;;;;19.00;9.40;;;21.30;99.90;;;;;;5031411;28;20029;-60
2021/07/26 09:18:07;;;;;;;18.55;8.50;;;21.30;99.90;;;;;;5030675;28;20053;-57
2021/07/26 09:20:34;;;;;;;29.88;9.00;;;21.30;99.90;;;;;;5031400;28;20052;-60
2021/07/26 09:23:14;;;;;;;23.35;8.93;;;21.40;99.90;;;;;;5029982;28;20325;-58
2021/07/26 09:25:42;;;;;;;16.15;7.90;;;21.60;99.90;;;;;;5031142;28;20068;-58
2021/07/26 09:28:15;;;;;;;23.65;7.55;;;21.80;99.90;;;;;;5028666;28;20042;-58
2021/07/26 09:30:52;;;;;;;21.58;8.60;;;21.70;99.90;;;;;;5030909;28;20577;-59
2021/07/26 09:33:26;;;;;;;37.80;8.90;;;21.70;99.90;;;;;;5029238;28;20077;-58
2021/07/26 09:36:20;;;;;;;28.00;9.70;;;21.90;99.90;;;;;;5030991;28;20080;-58
2021/07/26 09:38:49;;;;;;;29.73;8.85;;;22.10;99.90;;;;;;5030945;28;20042;-59
2021/07/26 09:41:45;;;;;;;27.58;7.60;;;22.20;99.90;;;;;;5031013;28;20029;-58
2021/07/26 09:44:12;;;;;;;27.27;8.57;;;22.10;99.90;;;;;;5030844;28;20494;-59
2021/07/26 09:46:43;;;;;;;16.48;7.55;;;22.20;99.90;;;;;;5030528;28;20151;-59
2021/07/26 09:49:09;;;;;;;12.63;7.22;;;22.10;99.90;;;;;;5030815;28;20056;-59
2021/07/26 09:51:35;;;;;;;18.80;6.47;;;22.00;99.90;;;;;;5030324;28;20060;-59
2021/07/26 09:54:01;;;;;;;18.88;7.03;;;21.90;99.90;;;;;;5030686;28;20583;-57
2021/07/26 09:56:33;;;;;;;14.43;7.03;;;22.00;99.90;;;;;;5030061;28;20111;-60
2021/07/26 09:58:59;;;;;;;19.80;7.18;;;22.00;99.90;;;;;;5030684;28;20037;-58
2021/07/26 10:01:25;;;;;;;15.98;7.00;;;22.10;99.90;;;;;;5028643;28;20025;-63
2021/07/26 10:03:52;;;;;;;22.75;6.60;;;22.30;99.90;;;;;;5031037;28;20116;-58
2021/07/26 10:06:20;;;;;;;14.55;7.10;;;22.40;99.90;;;;;;5030704;28;20030;-62
2021/07/26 10:08:50;;;;;;;16.38;6.68;;;22.40;99.90;;;;;;5030236;28;20037;-58
2021/07/26 10:11:16;;;;;;;15.15;7.20;;;22.50;99.90;;;;;;5030604;28;20076;-59
2021/07/26 10:13:46;;;;;;;20.73;7.40;;;22.60;99.90;;;;;;5029776;28;20044;-59
2021/07/26 10:16:19;;;;;;;14.90;6.45;;;22.60;99.90;;;;;;5029142;28;20032;-58
2021/07/26 10:18:49;;;;;;;20.35;6.47;;;22.70;99.90;;;;;;5016403;28;20037;-60
2021/07/26 10:21:19;;;;;;;16.80;6.68;;;22.80;99.90;;;;;;5030358;28;20029;-61
2021/07/26 10:23:59;;;;;;;21.00;6.95;;;23.00;99.90;;;;;;5033659;28;20029;-60
2021/07/26 10:26:41;;;;;;;17.15;7.38;;;23.00;99.90;;;;;;5034059;28;20030;-60
2021/07/26 10:29:07;;;;;;;15.48;6.75;;;23.00;99.90;;;;;;5021188;28;20037;-60
2021/07/26 10:31:35;;;;;;;19.50;6.53;;;22.90;99.90;;;;;;5034279;28;20044;-58
2021/07/26 10:34:07;;;;;;;19.85;6.60;;;23.10;99.90;;;;;;5034136;28;20088;-60
2021/07/26 10:36:42;;;;;;;16.23;6.45;;;23.10;99.90;;;;;;5032907;28;20026;-62
2021/07/26 10:39:12;;;;;;;21.25;7.45;;;23.20;99.90;;;;;;5033777;28;20391;-60
2021/07/26 10:41:43;;;;;;;13.32;6.85;;;23.30;99.90;;;;;;5033865;28;20021;-61
2021/07/26 10:44:18;;;;;;;13.40;6.63;;;23.20;99.90;;;;;;5033909;28;20021;-59
2021/07/26 10:46:54;;;;;;;10.95;6.65;;;23.20;99.90;;;;;;5033306;28;20022;-61
2021/07/26 10:49:45;;;;;;;10.93;6.05;;;23.20;99.90;;;;;;5037821;28;20040;-59
2021/07/26 10:52:50;;;;;;;12.45;6.38;;;23.20;99.90;;;;;;5028615;28;20506;-60
2021/07/26 10:56:11;;;;;;;24.55;7.40;;;23.40;99.90;;;;;;5032977;28;20095;-59
2021/07/26 10:59:03;;;;;;;13.30;6.53;;;23.50;99.90;;;;;;5022792;28;20042;-60
2021/07/26 11:01:28;;;;;;;16.40;6.90;;;23.60;99.90;;;;;;5031486;28;20073;-60
2021/07/26 11:03:58;;;;;;;9.20;5.90;;;23.70;99.90;;;;;;5033087;28;20064;-60
2021/07/26 11:06:41;;;;;;;57.67;8.00;;;23.50;99.90;;;;;;5033138;28;20041;-58
2021/07/26 11:09:19;;;;;;;15.45;6.82;;;23.70;99.90;;;;;;5033663;28;20120;-59
2021/07/26 11:11:52;;;;;;;17.15;6.90;;;23.90;99.90;;;;;;5029624;28;20088;-58
2021/07/26 11:14:18;;;;;;;14.38;6.10;;;24.10;99.90;;;;;;5034554;28;20024;-58
2021/07/26 11:17:07;;;;;;;11.05;5.63;;;24.00;99.90;;;;;;5032697;28;20030;-58
2021/07/26 11:19:44;;;;;;;12.52;5.90;;;24.00;99.90;;;;;;5032895;28;20145;-60
2021/07/26 11:22:15;;;;;;;11.68;6.20;;;23.80;99.90;;;;;;5031549;28;20053;-57
2021/07/26 11:24:41;;;;;;;17.33;6.88;;;24.00;99.90;;;;;;5027188;28;20026;-60
2021/07/26 11:27:13;;;;;;;11.45;5.55;;;24.00;99.90;;;;;;5031968;28;20061;-61
2021/07/26 11:29:42;;;;;;;9.45;5.75;;;24.20;99.90;;;;;;5031885;28;20037;-58
2021/07/26 11:32:08;;;;;;;15.23;6.30;;;24.20;99.90;;;;;;5032147;28;20487;-59
2021/07/26 11:34:34;;;;;;;10.30;5.53;;;24.20;99.90;;;;;;5031482;28;20036;-59
2021/07/26 11:37:14;;;;;;;13.75;5.68;;;24.20;99.90;;;;;;5031776;28;20530;-58
2021/07/26 11:39:48;;;;;;;11.38;5.60;;;24.20;99.90;;;;;;5027937;28;20546;-60
2021/07/26 11:42:19;;;;;;;11.88;5.80;;;24.30;99.90;;;;;;5030096;28;20097;-58
2021/07/26 11:44:46;;;;;;;11.80;6.07;;;24.40;99.90;;;;;;5027513;28;20143;-58
2021/07/26 11:47:14;;;;;;;14.90;6.25;;;24.50;99.90;;;;;;5031407;28;20149;-58
2021/07/26 11:49:47;;;;;;;12.05;5.95;;;24.40;99.90;;;;;;5032414;28;20079;-59
2021/07/26 11:52:13;;;;;;;17.30;6.82;;;24.10;99.90;;;;;;5031385;28;20163;-59
2021/07/26 11:54:39;;;;;;;11.23;5.97;;;24.10;99.90;;;;;;5032505;28;20034;-59
2021/07/26 11:57:13;;;;;;;11.55;5.88;;;24.30;99.90;;;;;;5032332;28;20798;-59
2021/07/26 11:59:40;;;;;;;13.30;5.22;;;24.50;99.90;;;;;;5059991;28;20036;-59
2021/07/26 12:02:08;;;;;;;9.02;5.05;;;24.60;99.90;;;;;;5032017;28;20040;-58
2021/07/26 12:04:35;;;;;;;9.32;5.43;;;24.70;99.90;;;;;;5031481;28;20399;-60
2021/07/26 12:07:03;;;;;;;9.20;4.90;;;24.80;99.90;;;;;;5031929;28;20189;-59
2021/07/26 12:09:30;;;;;;;9.65;5.30;;;24.80;99.90;;;;;;5030073;28;20040;-60
2021/07/26 12:12:13;;;;;;;11.00;5.57;;;24.80;99.90;;;;;;5031439;28;20041;-58
2021/07/26 12:14:41;;;;;;;10.52;5.32;;;24.90;99.90;;;;;;5026625;28;20025;-60
2021/07/26 12:17:09;;;;;;;8.73;5.47;;;24.90;99.90;;;;;;5032284;28;20017;-60
2021/07/26 12:19:40;;;;;;;13.82;5.35;;;24.90;99.90;;;;;;5031481;28;20033;-58
2021/07/26 12:22:23;;;;;;;11.40;5.88;;;24.80;99.90;;;;;;5031062;28;20028;-59
2021/07/26 12:24:58;;;;;;;13.15;6.22;;;24.90;99.90;;;;;;5034327;28;20036;-58
2021/07/26 12:27:26;;;;;;;12.73;6.22;;;24.90;99.90;;;;;;5035197;28;20045;-60
2021/07/26 12:30:09;;;;;;;18.38;7.40;;;25.20;99.90;;;;;;5030220;28;20433;-57
2021/07/26 12:32:55;;;;;;;8.13;5.72;;;25.40;99.90;;;;;;5031168;28;20044;-59
2021/07/26 12:35:23;;;;;;;10.45;5.60;;;25.50;99.90;;;;;;5031743;28;20022;-59
2021/07/26 12:38:06;;;;;;;13.98;5.82;;;25.40;99.90;;;;;;5031292;28;20112;-61